Time;durP1;ratioP1;P1;durP2;ratioP2;P2;SDS_P1;SDS_P2;PMS_P1;PMS_P2;Temp;Humidity;BMP_temperature;BMP_pressure;BME280_temperature;BME280_humidity;BME280_pressure;Samples;Min_cycle;Max_cycle;Signal;HPM_P1;HPM_P2
2023/12/02 00:00:31;;;;;;;2.67;2.47;;;2.50;99.90;;;;;;4992954;28;20029;-75
2023/12/02 00:02:57;;;;;;;3.03;2.63;;;2.50;99.90;;;;;;4992879;28;20110;-74
2023/12/02 00:05:23;;;;;;;3.03;2.42;;;2.50;99.90;;;;;;4975180;28;20026;-75
2023/12/02 00:07:49;;;;;;;2.20;1.98;;;2.50;99.90;;;;;;4992584;28;20019;-75
2023/12/02 00:10:14;;;;;;;3.10;2.20;;;2.40;99.90;;;;;;4975329;28;20033;-74
2023/12/02 00:12:40;;;;;;;2.22;2.00;;;2.40;99.90;;;;;;4992257;28;20377;-75
2023/12/02 00:15:07;;;;;;;2.35;2.15;;;2.40;99.90;;;;;;4994480;28;20057;-75
2023/12/02 00:17:33;;;;;;;1.70;1.60;;;2.50;99.90;;;;;;4998571;28;20022;-76
2023/12/02 00:19:58;;;;;;;2.22;1.75;;;2.40;99.90;;;;;;4980653;28;20476;-75
2023/12/02 00:22:24;;;;;;;3.60;2.28;;;2.40;99.90;;;;;;4978849;28;20037;-75
2023/12/02 00:24:50;;;;;;;2.90;2.38;;;2.50;99.90;;;;;;4975134;28;20019;-75
2023/12/02 00:27:17;;;;;;;2.63;1.80;;;2.50;99.90;;;;;;4974412;28;20026;-75
2023/12/02 00:29:43;;;;;;;2.17;1.98;;;2.50;99.90;;;;;;4975116;28;20026;-75
2023/12/02 00:32:09;;;;;;;2.90;1.35;;;2.50;99.90;;;;;;4992470;28;20052;-75
2023/12/02 00:34:35;;;;;;;2.65;2.45;;;2.60;99.90;;;;;;4992461;28;20029;-75
2023/12/02 00:37:00;;;;;;;2.13;1.77;;;2.50;99.90;;;;;;4992274;28;20409;-75
2023/12/02 00:39:27;;;;;;;1.80;1.70;;;2.50;99.90;;;;;;4975093;28;20680;-75
2023/12/02 00:41:53;;;;;;;2.08;1.88;;;2.50;99.90;;;;;;4992363;28;20022;-75
2023/12/02 00:44:19;;;;;;;2.45;1.92;;;2.50;99.90;;;;;;4992536;28;20027;-75
2023/12/02 00:46:45;;;;;;;1.60;1.50;;;2.40;99.90;;;;;;4992210;28;20109;-75
2023/12/02 00:49:11;;;;;;;1.88;1.75;;;2.40;99.90;;;;;;4974920;28;20098;-75
2023/12/02 00:51:37;;;;;;;2.30;1.95;;;2.50;99.90;;;;;;4974902;28;20027;-74
2023/12/02 00:54:02;;;;;;;1.75;1.60;;;2.50;99.90;;;;;;4992380;28;20472;-75
2023/12/02 00:56:28;;;;;;;3.85;1.90;;;2.50;99.90;;;;;;4992170;28;20381;-74
2023/12/02 00:58:54;;;;;;;1.90;1.70;;;2.50;99.90;;;;;;4974742;28;20053;-75
2023/12/02 01:01:19;;;;;;;1.38;1.27;;;2.50;99.90;;;;;;4974837;28;20022;-74
2023/12/02 01:03:45;;;;;;;1.85;1.55;;;2.60;99.90;;;;;;4992658;28;20105;-74
2023/12/02 01:06:11;;;;;;;1.13;1.00;;;2.50;99.90;;;;;;4995394;28;20022;-75
2023/12/02 01:08:37;;;;;;;2.15;2.00;;;2.50;99.90;;;;;;4992655;28;20611;-75
2023/12/02 01:11:02;;;;;;;5.10;1.65;;;2.60;99.90;;;;;;4975239;28;20105;-74
2023/12/02 01:13:28;;;;;;;3.00;1.77;;;2.50;99.90;;;;;;4974831;28;20055;-75
2023/12/02 01:15:54;;;;;;;1.67;1.58;;;2.50;99.90;;;;;;4974413;28;20022;-75
2023/12/02 01:18:19;;;;;;;1.90;1.80;;;2.50;99.90;;;;;;4992245;28;20068;-75
2023/12/02 01:20:45;;;;;;;2.58;2.00;;;2.50;99.90;;;;;;4992161;28;20034;-75
2023/12/02 01:23:11;;;;;;;2.50;1.60;;;2.50;99.90;;;;;;4992566;28;20030;-75
2023/12/02 01:25:36;;;;;;;1.73;1.63;;;2.50;99.90;;;;;;4995480;28;20149;-74
2023/12/02 01:28:02;;;;;;;3.35;1.60;;;2.50;99.90;;;;;;4978129;28;20121;-74
2023/12/02 01:30:27;;;;;;;2.20;1.55;;;2.50;99.90;;;;;;4978297;28;20051;-75
2023/12/02 01:32:53;;;;;;;1.95;1.70;;;2.50;99.90;;;;;;4995675;28;20365;-75
2023/12/02 01:35:19;;;;;;;2.20;1.70;;;2.50;99.90;;;;;;4978161;28;20150;-74
2023/12/02 01:37:44;;;;;;;2.58;1.73;;;2.50;99.90;;;;;;4977862;28;20050;-75
2023/12/02 01:40:12;;;;;;;1.45;1.35;;;2.50;99.90;;;;;;4977909;28;20408;-74
2023/12/02 01:42:38;;;;;;;2.80;1.70;;;2.50;99.90;;;;;;4995309;28;20034;-75
2023/12/02 01:45:04;;;;;;;1.70;1.60;;;2.50;99.90;;;;;;4995460;28;20026;-74
2023/12/02 01:47:30;;;;;;;2.20;1.90;;;2.50;99.90;;;;;;4995063;28;20015;-74
2023/12/02 01:49:59;;;;;;;1.88;1.60;;;2.50;99.90;;;;;;4995365;28;20042;-74
2023/12/02 01:52:25;;;;;;;1.48;1.20;;;2.50;99.90;;;;;;4977806;28;20080;-75
2023/12/02 01:54:51;;;;;;;1.98;1.77;;;2.50;99.90;;;;;;4995258;28;20102;-74
2023/12/02 01:57:17;;;;;;;1.52;1.42;;;2.50;99.90;;;;;;4994966;28;20026;-75
2023/12/02 01:59:53;;;;;;;3.10;1.88;;;2.50;99.90;;;;;;4995172;28;20041;-75
2023/12/02 02:02:18;;;;;;;2.08;1.90;;;2.50;99.90;;;;;;4995041;28;20026;-75
2023/12/02 02:04:44;;;;;;;2.08;1.40;;;2.60;99.90;;;;;;4995114;28;20042;-75
2023/12/02 02:07:10;;;;;;;2.78;1.63;;;2.50;99.90;;;;;;4994753;28;20023;-75
2023/12/02 02:09:47;;;;;;;1.90;1.80;;;2.50;99.90;;;;;;4977394;28;20755;-75
2023/12/02 02:12:13;;;;;;;2.53;1.63;;;2.50;99.90;;;;;;4994950;28;20069;-75
2023/12/02 02:14:39;;;;;;;5.32;1.63;;;2.60;99.90;;;;;;4977396;28;20031;-75
2023/12/02 02:17:04;;;;;;;1.65;1.52;;;2.50;99.90;;;;;;4977162;28;20049;-74
2023/12/02 02:19:31;;;;;;;1.67;1.58;;;2.60;99.90;;;;;;4977157;28;20031;-75
2023/12/02 02:21:57;;;;;;;1.70;1.60;;;2.50;99.90;;;;;;4994692;28;20026;-74
2023/12/02 02:24:23;;;;;;;1.48;1.38;;;2.50;99.90;;;;;;4994552;28;20018;-74
2023/12/02 02:26:49;;;;;;;1.40;1.20;;;2.50;99.90;;;;;;4994394;28;20057;-75
2023/12/02 02:29:14;;;;;;;1.98;1.30;;;2.50;99.90;;;;;;4994531;28;20404;-75
2023/12/02 02:31:40;;;;;;;1.33;1.25;;;2.50;99.90;;;;;;4994590;28;20489;-74
2023/12/02 02:34:06;;;;;;;2.60;1.67;;;2.60;99.90;;;;;;4976706;28;20038;-75
2023/12/02 02:36:31;;;;;;;1.58;1.35;;;2.60;99.90;;;;;;4994179;28;20510;-74
2023/12/02 02:38:57;;;;;;;2.85;1.63;;;2.50;99.90;;;;;;4976840;28;20472;-75
2023/12/02 02:41:22;;;;;;;1.35;1.20;;;2.60;99.90;;;;;;4994352;28;20022;-75
2023/12/02 02:43:48;;;;;;;1.40;1.30;;;2.60;99.90;;;;;;4976903;28;20481;-74
2023/12/02 02:46:14;;;;;;;2.60;1.80;;;2.60;99.90;;;;;;4976503;28;20033;-74
2023/12/02 02:48:40;;;;;;;1.70;1.40;;;2.60;99.90;;;;;;4976684;28;20160;-75
2023/12/02 02:51:05;;;;;;;1.80;1.70;;;2.60;99.90;;;;;;4976858;28;20032;-75
2023/12/02 02:53:31;;;;;;;3.30;1.58;;;2.70;99.90;;;;;;4993982;28;20110;-75
2023/12/02 02:55:57;;;;;;;6.53;1.88;;;2.60;99.90;;;;;;4993746;28;20029;-74
2023/12/02 02:58:22;;;;;;;1.52;1.35;;;2.50;99.90;;;;;;4994005;28;20088;-74
2023/12/02 03:00:48;;;;;;;3.65;1.67;;;2.50;99.90;;;;;;4994060;28;20026;-75
2023/12/02 03:03:13;;;;;;;2.28;1.25;;;2.50;99.90;;;;;;4993764;28;20022;-74
2023/12/02 03:05:39;;;;;;;3.13;1.65;;;2.60;99.90;;;;;;4976024;28;20026;-75
2023/12/02 03:08:04;;;;;;;1.85;1.63;;;2.60;99.90;;;;;;4976168;28;20392;-75
2023/12/02 03:10:30;;;;;;;1.90;1.50;;;2.50;99.90;;;;;;4976271;28;20076;-74
2023/12/02 03:12:56;;;;;;;2.55;1.58;;;2.60;99.90;;;;;;4993790;28;20404;-75
2023/12/02 03:15:22;;;;;;;1.50;1.30;;;2.60;99.90;;;;;;4993531;28;20026;-74
2023/12/02 03:17:48;;;;;;;1.30;1.13;;;2.60;99.90;;;;;;4976096;28;20041;-76
2023/12/02 03:20:13;;;;;;;1.20;1.10;;;2.60;99.90;;;;;;4993642;28;20027;-75
2023/12/02 03:22:39;;;;;;;2.55;1.50;;;2.60;99.90;;;;;;4993386;28;20052;-74
2023/12/02 03:25:06;;;;;;;1.13;1.02;;;2.60;99.90;;;;;;4993609;28;20161;-75
2023/12/02 03:27:32;;;;;;;0.95;0.95;;;2.70;99.90;;;;;;4975808;28;20026;-74
2023/12/02 03:29:57;;;;;;;1.65;1.30;;;2.60;99.90;;;;;;4976010;28;20026;-75
2023/12/02 03:32:23;;;;;;;1.02;1.00;;;2.70;99.90;;;;;;4993464;28;20027;-75
2023/12/02 03:34:48;;;;;;;1.45;1.30;;;2.60;99.90;;;;;;4976022;28;20117;-75
2023/12/02 03:37:14;;;;;;;2.05;1.17;;;2.60;99.90;;;;;;4993015;28;20420;-74
2023/12/02 03:39:40;;;;;;;2.30;1.63;;;2.60;99.90;;;;;;4992680;28;20034;-74
2023/12/02 03:42:05;;;;;;;1.10;1.05;;;2.70;99.90;;;;;;4991932;28;20030;-74
2023/12/02 03:44:31;;;;;;;2.47;1.17;;;2.60;99.90;;;;;;4975896;28;20080;-74
2023/12/02 03:46:57;;;;;;;1.95;1.30;;;2.60;99.90;;;;;;4992253;28;20396;-74
2023/12/02 03:49:22;;;;;;;1.90;1.30;;;2.60;99.90;;;;;;4975669;28;20027;-75
2023/12/02 03:51:48;;;;;;;2.80;1.38;;;2.60;99.90;;;;;;4975631;28;20062;-74
2023/12/02 03:54:14;;;;;;;1.83;1.55;;;2.50;99.90;;;;;;4993045;28;20025;-74
2023/12/02 03:56:39;;;;;;;2.65;1.30;;;2.60;99.90;;;;;;4992734;28;20030;-75
2023/12/02 03:59:05;;;;;;;1.45;1.35;;;2.50;99.90;;;;;;4993142;28;20026;-75
2023/12/02 04:01:31;;;;;;;2.40;1.45;;;2.50;99.90;;;;;;4992879;28;20026;-75
2023/12/02 04:03:57;;;;;;;1.30;1.20;;;2.50;99.90;;;;;;4975564;28;20495;-74
2023/12/02 04:06:23;;;;;;;1.92;1.33;;;2.50;99.90;;;;;;4975056;28;20547;-74
2023/12/02 04:08:49;;;;;;;1.40;1.30;;;2.50;99.90;;;;;;4992421;28;20030;-75
2023/12/02 04:11:14;;;;;;;1.40;1.30;;;2.50;99.90;;;;;;4975359;28;20026;-74
2023/12/02 04:13:40;;;;;;;5.00;1.42;;;2.60;99.90;;;;;;4992824;28;20022;-74
2023/12/02 04:16:06;;;;;;;2.00;1.80;;;2.60;99.90;;;;;;4992422;28;20038;-75
2023/12/02 04:18:31;;;;;;;1.70;1.60;;;2.60;99.90;;;;;;4990063;28;20161;-74
2023/12/02 04:20:57;;;;;;;3.70;2.03;;;2.70;99.90;;;;;;4972201;28;20023;-74
2023/12/02 04:23:22;;;;;;;6.40;2.25;;;2.70;99.90;;;;;;4972687;28;20033;-75
2023/12/02 04:25:48;;;;;;;4.57;1.98;;;2.70;99.90;;;;;;4987896;28;20050;-74
2023/12/02 04:28:14;;;;;;;7.65;2.85;;;2.60;99.90;;;;;;4973118;28;20113;-74
2023/12/02 04:30:39;;;;;;;7.60;2.17;;;2.70;99.90;;;;;;4972012;28;20031;-75
2023/12/02 04:33:05;;;;;;;4.43;1.80;;;2.70;99.90;;;;;;4973281;28;20417;-75
2023/12/02 04:35:31;;;;;;;6.90;1.90;;;2.70;99.90;;;;;;4963739;28;20050;-75
2023/12/02 04:37:57;;;;;;;2.58;1.42;;;2.70;99.90;;;;;;4991381;28;20106;-76
2023/12/02 04:40:23;;;;;;;1.60;1.50;;;2.60;99.90;;;;;;4982711;28;20035;-76
2023/12/02 04:42:48;;;;;;;1.58;1.48;;;2.60;99.90;;;;;;4977586;28;20086;-75
2023/12/02 04:45:14;;;;;;;2.03;1.65;;;2.60;99.90;;;;;;4977067;28;20074;-75
2023/12/02 04:47:39;;;;;;;1.92;1.20;;;2.60;99.90;;;;;;4987682;28;20432;-75
2023/12/02 04:50:06;;;;;;;3.17;1.08;;;2.60;99.90;;;;;;4987924;28;20109;-75
2023/12/02 04:52:32;;;;;;;2.20;1.48;;;2.60;99.90;;;;;;4972835;28;20387;-74
2023/12/02 04:54:58;;;;;;;2.20;1.15;;;2.60;99.90;;;;;;4972992;28;20033;-75
2023/12/02 04:57:25;;;;;;;1.65;1.10;;;2.60;99.90;;;;;;4972327;28;20413;-74
2023/12/02 04:59:51;;;;;;;4.70;2.42;;;2.50;99.90;;;;;;4959517;28;20023;-75
2023/12/02 05:02:20;;;;;;;1.40;1.30;;;2.60;99.90;;;;;;4959288;28;20045;-74
2023/12/02 05:04:46;;;;;;;1.55;1.40;;;2.60;99.90;;;;;;4975506;28;20023;-75
2023/12/02 05:07:12;;;;;;;3.47;1.33;;;2.70;99.90;;;;;;4976193;28;20019;-74
2023/12/02 05:09:39;;;;;;;1.48;1.30;;;2.70;99.90;;;;;;4979522;23;20109;-75
2023/12/02 05:12:05;;;;;;;1.67;1.58;;;2.50;99.90;;;;;;4961625;28;20030;-77
2023/12/02 05:14:31;;;;;;;3.00;1.90;;;2.60;99.90;;;;;;4962378;28;20030;-77
2023/12/02 05:16:56;;;;;;;2.35;1.40;;;2.60;99.90;;;;;;4979660;28;20094;-77
2023/12/02 05:19:22;;;;;;;2.13;1.92;;;2.50;99.90;;;;;;4962859;28;20030;-78
2023/12/02 05:21:47;;;;;;;1.65;1.23;;;2.50;99.90;;;;;;4962115;28;20066;-76
2023/12/02 05:24:13;;;;;;;1.55;1.38;;;2.50;99.90;;;;;;4962139;28;20126;-77
2023/12/02 05:26:39;;;;;;;1.48;1.20;;;2.50;99.90;;;;;;4961186;28;20069;-77
2023/12/02 05:29:07;;;;;;;3.67;1.60;;;3.00;99.90;;;;;;4978949;28;20034;-78
2023/12/02 05:31:32;;;;;;;2.17;1.50;;;2.80;99.90;;;;;;4961583;28;20097;-80
2023/12/02 05:33:58;;;;;;;2.38;2.00;;;2.80;99.90;;;;;;4982801;28;20035;-77
2023/12/02 05:36:24;;;;;;;2.53;1.55;;;2.70;99.90;;;;;;4961001;28;20037;-77
2023/12/02 05:38:50;;;;;;;3.88;1.88;;;2.70;99.90;;;;;;4978786;28;20109;-77
2023/12/02 05:41:16;;;;;;;2.95;2.42;;;2.70;99.90;;;;;;4978826;28;20065;-76
2023/12/02 05:43:41;;;;;;;2.70;2.30;;;2.60;99.90;;;;;;4978653;28;20473;-78
2023/12/02 05:46:07;;;;;;;2.75;1.90;;;2.60;99.90;;;;;;4961111;28;20023;-78
2023/12/02 05:48:33;;;;;;;2.80;2.05;;;2.60;99.90;;;;;;4961005;28;20033;-77
2023/12/02 05:51:01;;;;;;;3.08;2.00;;;2.60;99.90;;;;;;4961358;28;20030;-77
2023/12/02 05:53:27;;;;;;;5.18;3.05;;;2.60;99.90;;;;;;4961651;28;20401;-77
2023/12/02 05:55:52;;;;;;;3.80;2.67;;;2.50;99.90;;;;;;4978167;28;20023;-79
2023/12/02 05:58:18;;;;;;;6.32;4.10;;;2.50;99.90;;;;;;4978497;28;20027;-77
2023/12/02 06:00:44;;;;;;;4.82;3.30;;;2.40;99.90;;;;;;4961016;28;20095;-76
2023/12/02 06:03:09;;;;;;;5.75;3.95;;;2.50;99.90;;;;;;4960633;28;20037;-77
2023/12/02 06:05:35;;;;;;;5.00;3.38;;;2.40;99.90;;;;;;4978594;28;20069;-77
2023/12/02 06:08:01;;;;;;;5.18;3.17;;;2.40;99.90;;;;;;4978482;28;20050;-78
2023/12/02 06:10:26;;;;;;;5.35;3.58;;;2.50;99.90;;;;;;4978512;28;20081;-77
2023/12/02 06:12:52;;;;;;;6.68;3.72;;;2.50;99.90;;;;;;4977945;28;20031;-76
2023/12/02 06:15:18;;;;;;;5.75;3.60;;;2.50;99.90;;;;;;4960806;28;20477;-78
2023/12/02 06:17:44;;;;;;;5.55;3.38;;;2.50;99.90;;;;;;4963419;28;20035;-77
2023/12/02 06:20:11;;;;;;;8.40;4.57;;;2.50;99.90;;;;;;4978668;28;20038;-78
2023/12/02 06:22:36;;;;;;;8.90;3.88;;;2.40;99.90;;;;;;4978625;28;20109;-78
2023/12/02 06:25:02;;;;;;;6.50;3.92;;;2.40;99.90;;;;;;4961537;28;20101;-77
2023/12/02 06:27:28;;;;;;;6.88;3.70;;;2.40;99.90;;;;;;4978228;28;20019;-78
2023/12/02 06:29:53;;;;;;;3.80;2.80;;;2.40;99.90;;;;;;4978699;28;20027;-77
2023/12/02 06:32:19;;;;;;;5.90;2.97;;;2.40;99.90;;;;;;4961457;28;20031;-77
2023/12/02 06:34:44;;;;;;;6.18;2.92;;;2.40;99.90;;;;;;4978233;28;20026;-78
2023/12/02 06:37:10;;;;;;;4.10;2.47;;;2.40;99.90;;;;;;4960953;28;20125;-77
2023/12/02 06:39:36;;;;;;;3.38;2.28;;;2.40;99.90;;;;;;4977942;28;20031;-78
2023/12/02 06:42:01;;;;;;;4.07;3.03;;;2.40;99.90;;;;;;4977632;28;20366;-79
2023/12/02 06:44:27;;;;;;;5.10;3.60;;;2.30;99.90;;;;;;4978410;28;20065;-78
2023/12/02 06:46:53;;;;;;;5.05;3.58;;;2.40;99.90;;;;;;4977500;28;20031;-77
2023/12/02 06:49:18;;;;;;;5.35;3.60;;;2.40;99.90;;;;;;4978134;28;20045;-77
2023/12/02 06:51:44;;;;;;;4.95;2.75;;;2.50;99.90;;;;;;4960130;28;20507;-77
2023/12/02 06:54:10;;;;;;;39.20;16.08;;;2.40;99.90;;;;;;4977459;28;20026;-78
2023/12/02 06:56:36;;;;;;;16.27;9.10;;;2.50;99.90;;;;;;4959240;28;20030;-78
2023/12/02 06:59:02;;;;;;;6.53;4.43;;;2.40;99.90;;;;;;4976681;28;20085;-77
2023/12/02 07:01:30;;;;;;;9.32;4.68;;;2.40;99.90;;;;;;4976938;28;20031;-77
2023/12/02 07:03:57;;;;;;;27.08;17.52;;;2.40;99.90;;;;;;4976634;28;20384;-77
2023/12/02 07:06:23;;;;;;;16.00;9.32;;;2.40;99.90;;;;;;4959092;28;20192;-77
2023/12/02 07:08:49;;;;;;;6.25;3.97;;;2.40;99.90;;;;;;4959300;28;20027;-76
2023/12/02 07:11:15;;;;;;;5.82;3.45;;;2.40;99.90;;;;;;4976601;28;20441;-76
2023/12/02 07:13:41;;;;;;;37.50;17.88;;;2.90;99.90;;;;;;4977105;28;20033;-76
2023/12/02 07:16:07;;;;;;;12.30;7.25;;;2.60;99.90;;;;;;4975758;28;20027;-77
2023/12/02 07:18:33;;;;;;;8.50;4.20;;;2.30;99.90;;;;;;4976013;28;20019;-77
2023/12/02 07:20:58;;;;;;;10.32;5.95;;;2.40;99.90;;;;;;4975711;28;20027;-77
2023/12/02 07:23:28;;;;;;;18.67;8.95;;;2.30;99.90;;;;;;4953793;28;20033;-78
2023/12/02 07:25:58;;;;;;;10.05;6.28;;;2.40;99.90;;;;;;4955097;28;20029;-77
2023/12/02 07:28:24;;;;;;;7.40;4.72;;;2.40;99.90;;;;;;4946343;29;20031;-78
2023/12/02 07:30:50;;;;;;;16.17;7.15;;;2.50;99.90;;;;;;4956933;29;20023;-78
2023/12/02 07:33:18;;;;;;;38.00;17.38;;;2.40;99.90;;;;;;4956288;29;20027;-76
2023/12/02 07:35:44;;;;;;;23.55;10.45;;;2.50;99.90;;;;;;4956792;29;20023;-77
2023/12/02 07:38:10;;;;;;;32.60;17.58;;;2.50;99.90;;;;;;4939103;29;20122;-76
2023/12/02 07:40:36;;;;;;;17.23;10.80;;;2.50;99.90;;;;;;4956768;29;20051;-78
2023/12/02 07:43:02;;;;;;;19.52;9.93;;;2.50;99.90;;;;;;4957492;29;20031;-76
2023/12/02 07:45:28;;;;;;;11.85;5.43;;;2.60;99.90;;;;;;4956866;29;20438;-76
2023/12/02 07:47:54;;;;;;;369.10;111.88;;;2.60;99.90;;;;;;4955886;28;20054;-76
2023/12/02 07:50:19;;;;;;;375.92;113.72;;;2.80;99.90;;;;;;4955527;29;20028;-76
2023/12/02 07:52:45;;;;;;;150.70;58.03;;;2.60;99.90;;;;;;4955948;29;20031;-76
2023/12/02 07:55:12;;;;;;;27.45;14.02;;;2.60;99.90;;;;;;4955611;29;20027;-77
2023/12/02 07:57:38;;;;;;;128.80;48.40;;;2.50;99.90;;;;;;4955697;28;20038;-77
2023/12/02 08:00:05;;;;;;;41.05;21.33;;;2.70;99.90;;;;;;4955766;29;20081;-76
2023/12/02 08:02:30;;;;;;;16.95;8.77;;;2.50;99.90;;;;;;4938305;29;20168;-77
2023/12/02 08:04:57;;;;;;;20.35;9.27;;;2.50;99.90;;;;;;4938595;29;20482;-76
2023/12/02 08:07:22;;;;;;;17.23;8.07;;;2.50;99.90;;;;;;4955667;28;20082;-76
2023/12/02 08:09:48;;;;;;;20.85;11.52;;;2.60;99.90;;;;;;4955337;29;20031;-76
2023/12/02 08:12:14;;;;;;;26.38;13.13;;;2.50;99.90;;;;;;4938471;29;20028;-77
2023/12/02 08:14:39;;;;;;;10.48;5.85;;;2.60;99.90;;;;;;4955986;29;20110;-75
2023/12/02 08:17:05;;;;;;;18.33;8.63;;;2.60;99.90;;;;;;4954769;28;20028;-76
2023/12/02 08:19:31;;;;;;;17.60;9.52;;;2.70;99.90;;;;;;4955310;28;20027;-76
2023/12/02 08:21:57;;;;;;;23.85;10.68;;;2.70;99.90;;;;;;4953911;29;20035;-77
2023/12/02 08:24:22;;;;;;;12.52;7.00;;;2.70;99.90;;;;;;4954505;28;20023;-77
2023/12/02 08:26:48;;;;;;;18.65;7.32;;;2.70;99.90;;;;;;4953722;29;20077;-75
2023/12/02 08:29:14;;;;;;;24.48;11.95;;;2.70;99.90;;;;;;4954996;28;20046;-77
2023/12/02 08:31:39;;;;;;;26.23;10.80;;;2.70;99.90;;;;;;4955130;29;20028;-77
2023/12/02 08:34:05;;;;;;;18.40;10.77;;;2.70;99.90;;;;;;4959775;28;20026;-77
2023/12/02 08:36:31;;;;;;;12.18;8.45;;;3.70;99.90;;;;;;4966097;28;20085;-76
2023/12/02 08:38:56;;;;;;;9.45;5.03;;;3.40;99.90;;;;;;4964880;28;20142;-77
2023/12/02 08:41:22;;;;;;;13.40;8.65;;;3.90;99.90;;;;;;4961926;28;20508;-76
2023/12/02 08:43:47;;;;;;;51.42;27.70;;;3.60;99.90;;;;;;4969369;28;20019;-77
2023/12/02 08:46:17;;;;;;;27.20;13.60;;;3.30;99.90;;;;;;4957803;28;20054;-77
2023/12/02 08:48:43;;;;;;;26.35;11.57;;;2.90;99.90;;;;;;4943467;28;20019;-75
2023/12/02 08:51:09;;;;;;;33.03;12.30;;;2.70;99.90;;;;;;4965435;28;20023;-76
2023/12/02 08:53:35;;;;;;;39.97;12.95;;;2.50;99.90;;;;;;4966994;28;20106;-76
2023/12/02 08:56:00;;;;;;;38.97;14.82;;;2.50;99.90;;;;;;4958399;28;20035;-77
2023/12/02 08:58:26;;;;;;;26.65;9.85;;;2.40;99.90;;;;;;4971393;28;20493;-77
2023/12/02 09:00:52;;;;;;;20.33;10.00;;;2.40;99.90;;;;;;4961816;28;20106;-77
2023/12/02 09:03:17;;;;;;;14.73;6.85;;;2.30;99.90;;;;;;4947500;29;20024;-77
2023/12/02 09:05:44;;;;;;;16.63;9.18;;;2.20;99.90;;;;;;4968082;28;20038;-75
2023/12/02 09:08:09;;;;;;;15.23;8.82;;;2.10;99.90;;;;;;4940764;28;20023;-77
2023/12/02 09:10:35;;;;;;;29.13;15.45;;;2.10;99.90;;;;;;4973500;28;20031;-76
2023/12/02 09:13:00;;;;;;;22.48;12.68;;;2.00;99.90;;;;;;4973587;28;20058;-76
2023/12/02 09:15:43;;;;;;;18.42;8.82;;;1.90;99.90;;;;;;4972205;28;20022;-76
2023/12/02 09:18:10;;;;;;;11.95;7.20;;;2.00;99.90;;;;;;4974151;28;20038;-76
2023/12/02 09:20:48;;;;;;;11.30;6.07;;;2.10;99.90;;;;;;4956732;28;20082;-77
2023/12/02 09:23:18;;;;;;;40.55;17.95;;;2.00;99.90;;;;;;4956862;28;20034;-77
2023/12/02 09:25:45;;;;;;;15.57;8.48;;;2.00;99.90;;;;;;4972971;28;20059;-77
2023/12/02 09:28:32;;;;;;;8.00;4.65;;;2.00;99.90;;;;;;4974033;28;20030;-77
2023/12/02 09:31:08;;;;;;;8.30;4.85;;;2.00;99.90;;;;;;4973583;28;20038;-76
2023/12/02 09:33:34;;;;;;;4.50;3.25;;;1.90;99.90;;;;;;4953030;29;20032;-77
2023/12/02 09:36:01;;;;;;;8.05;4.40;;;1.80;99.90;;;;;;4953951;29;20079;-76
2023/12/02 09:38:28;;;;;;;11.88;4.05;;;1.80;99.90;;;;;;4954115;29;20023;-76
2023/12/02 09:41:06;;;;;;;21.55;10.48;;;1.80;99.90;;;;;;4954234;28;20154;-76
2023/12/02 09:43:54;;;;;;;34.50;14.10;;;1.70;99.90;;;;;;4956299;28;20463;-75
2023/12/02 09:46:31;;;;;;;16.17;7.60;;;1.60;99.90;;;;;;4960073;28;20019;-76
2023/12/02 09:49:27;;;;;;;4.03;3.58;;;1.60;99.90;;;;;;4977355;28;20023;-76
2023/12/02 09:52:20;;;;;;;14.20;7.68;;;1.50;99.90;;;;;;4960586;28;20030;-77
2023/12/02 09:55:14;;;;;;;18.13;8.32;;;1.50;99.90;;;;;;4977189;28;20153;-77
2023/12/02 09:57:46;;;;;;;13.43;6.32;;;1.50;99.90;;;;;;4955771;28;20039;-76
2023/12/02 10:00:20;;;;;;;8.93;6.35;;;1.40;99.90;;;;;;4961066;28;20045;-75
2023/12/02 10:02:45;;;;;;;10.18;6.50;;;1.40;99.90;;;;;;4960891;28;20031;-76
2023/12/02 10:05:13;;;;;;;7.05;4.95;;;1.50;99.90;;;;;;4959957;28;20037;-75
2023/12/02 10:07:41;;;;;;;8.32;4.10;;;1.50;99.90;;;;;;4959466;28;20086;-76
2023/12/02 10:10:13;;;;;;;4.13;2.90;;;1.50;99.90;;;;;;4960143;28;20147;-77
2023/12/02 10:12:57;;;;;;;9.93;5.97;;;1.60;99.90;;;;;;4978097;28;20031;-75
2023/12/02 10:15:28;;;;;;;11.30;6.30;;;1.60;99.90;;;;;;4976972;28;20392;-75
2023/12/02 10:18:00;;;;;;;15.18;4.30;;;1.50;99.90;;;;;;4956837;29;20027;-76
2023/12/02 10:20:34;;;;;;;5.75;4.35;;;4.20;99.90;;;;;;4958485;28;20031;-76
2023/12/02 10:23:19;;;;;;;9.23;4.90;;;4.80;99.90;;;;;;4958500;28;20037;-77
2023/12/02 10:26:15;;;;;;;8.05;5.88;;;5.30;99.90;;;;;;4958045;28;20027;-77
2023/12/02 10:28:55;;;;;;;7.70;4.53;;;6.00;99.90;;;;;;4956826;29;20174;-75
2023/12/02 10:31:25;;;;;;;9.95;6.35;;;6.00;99.90;;;;;;4959209;28;20312;-77
2023/12/02 10:34:28;;;;;;;10.15;5.32;;;5.70;99.90;;;;;;4977240;28;20023;-77
2023/12/02 10:36:57;;;;;;;11.48;5.47;;;5.40;99.90;;;;;;4955940;29;20094;-77
2023/12/02 10:39:35;;;;;;;8.18;5.30;;;5.30;99.90;;;;;;4957835;28;20031;-77
2023/12/02 10:42:03;;;;;;;8.38;4.90;;;5.30;99.90;;;;;;4958024;29;20163;-75
2023/12/02 10:44:33;;;;;;;8.88;5.13;;;5.40;99.90;;;;;;4940046;29;20051;-77
2023/12/02 10:47:00;;;;;;;9.85;4.25;;;5.10;99.90;;;;;;4940535;29;20396;-75
2023/12/02 10:49:28;;;;;;;6.15;4.18;;;5.60;99.90;;;;;;4940668;29;20027;-77
2023/12/02 10:51:57;;;;;;;5.35;4.10;;;4.60;99.90;;;;;;4957387;28;20089;-76
2023/12/02 10:54:26;;;;;;;3.78;2.70;;;4.10;99.90;;;;;;4959933;28;20496;-76
2023/12/02 10:57:07;;;;;;;8.80;4.88;;;3.50;99.90;;;;;;4958766;28;20034;-77
2023/12/02 11:00:12;;;;;;;7.60;5.22;;;2.80;99.90;;;;;;4959990;28;20444;-75
2023/12/02 11:02:41;;;;;;;7.68;4.07;;;2.40;99.90;;;;;;4956572;28;20042;-76
2023/12/02 11:05:20;;;;;;;3.88;3.20;;;2.10;99.90;;;;;;4959228;28;20027;-76
2023/12/02 11:08:08;;;;;;;7.60;4.07;;;2.10;99.90;;;;;;4976141;28;20420;-76
2023/12/02 11:10:43;;;;;;;5.78;4.00;;;2.10;99.90;;;;;;4960397;28;20575;-77
2023/12/02 11:13:18;;;;;;;5.65;4.00;;;2.00;99.90;;;;;;4954720;28;20417;-77
2023/12/02 11:15:56;;;;;;;10.30;6.50;;;2.00;99.90;;;;;;4958955;28;20078;-78
2023/12/02 11:18:36;;;;;;;9.77;7.47;;;2.00;99.90;;;;;;4970209;28;20031;-77
2023/12/02 11:21:04;;;;;;;7.88;4.68;;;2.00;99.90;;;;;;4965772;28;20103;-76
2023/12/02 11:24:09;;;;;;;17.88;9.80;;;1.90;99.90;;;;;;4969010;28;20433;-78
2023/12/02 11:26:44;;;;;;;7.28;5.28;;;1.80;99.90;;;;;;4946950;28;20077;-76
2023/12/02 11:29:19;;;;;;;4.25;3.53;;;1.80;99.90;;;;;;4946658;29;20162;-77
2023/12/02 11:32:15;;;;;;;5.53;3.35;;;1.70;99.90;;;;;;4953241;28;20023;-77
2023/12/02 11:34:50;;;;;;;6.47;4.03;;;1.70;99.90;;;;;;4974348;28;20047;-76
2023/12/02 11:37:29;;;;;;;4.65;3.78;;;1.80;99.90;;;;;;4950808;29;20055;-77
2023/12/02 11:40:19;;;;;;;13.60;7.57;;;1.80;99.90;;;;;;4974022;28;20486;-78
2023/12/02 11:42:56;;;;;;;6.03;4.63;;;1.70;99.90;;;;;;4964889;28;20082;-77
2023/12/02 11:45:40;;;;;;;7.28;4.53;;;1.80;99.90;;;;;;4945147;28;20023;-77
2023/12/02 11:48:11;;;;;;;6.32;4.10;;;1.70;99.90;;;;;;4946141;29;20031;-77
2023/12/02 11:50:59;;;;;;;6.75;4.13;;;1.70;99.90;;;;;;4954760;28;20536;-77
2023/12/02 11:53:34;;;;;;;7.28;4.40;;;1.60;99.90;;;;;;4959518;28;20039;-77
2023/12/02 11:56:09;;;;;;;5.90;4.05;;;1.50;99.90;;;;;;4955219;28;20034;-78
2023/12/02 11:59:00;;;;;;;10.13;5.22;;;1.50;99.90;;;;;;4958437;28;20033;-76
2023/12/02 12:02:00;;;;;;;7.57;5.07;;;1.60;99.90;;;;;;4958631;28;20113;-77
2023/12/02 12:04:44;;;;;;;15.18;6.88;;;1.40;99.90;;;;;;4958985;28;20025;-77
2023/12/02 12:07:31;;;;;;;15.13;7.70;;;1.50;99.90;;;;;;4975270;28;20099;-77
2023/12/02 12:10:07;;;;;;;14.57;8.30;;;1.50;99.90;;;;;;4974456;28;20034;-77
2023/12/02 12:12:34;;;;;;;;;;;1.60;99.90;;;;;;4958238;28;20054;-77
2023/12/02 12:15:02;;;;;;;6.10;4.43;;;1.70;99.90;;;;;;4958121;28;19906;-77
2023/12/02 12:17:28;;;;;;;4.97;4.45;;;1.60;99.90;;;;;;4975188;28;20031;-76
2023/12/02 12:19:59;;;;;;;12.50;8.18;;;1.60;99.90;;;;;;4958383;28;20027;-76
2023/12/02 12:22:27;;;;;;;17.70;10.85;;;1.70;99.90;;;;;;4975439;28;20022;-77
2023/12/02 12:24:53;;;;;;;28.80;14.80;;;1.90;99.90;;;;;;4954898;29;20027;-78
2023/12/02 12:27:19;;;;;;;16.63;7.32;;;2.10;99.90;;;;;;4954485;29;20030;-76
2023/12/02 12:29:55;;;;;;;8.48;5.30;;;2.30;99.90;;;;;;4955927;28;20110;-78
2023/12/02 12:32:21;;;;;;;54.03;24.90;;;2.30;99.90;;;;;;4955981;28;20034;-77
2023/12/02 12:34:48;;;;;;;17.42;10.80;;;2.10;99.90;;;;;;4955991;29;20027;-76
2023/12/02 12:37:18;;;;;;;11.75;8.10;;;2.10;99.90;;;;;;4955626;29;20055;-77
2023/12/02 12:39:44;;;;;;;13.15;8.40;;;2.20;99.90;;;;;;4954570;28;20023;-78
2023/12/02 12:42:11;;;;;;;6.93;5.60;;;1.90;99.90;;;;;;4954377;29;20098;-78
2023/12/02 12:44:40;;;;;;;6.72;5.35;;;1.90;99.90;;;;;;4954284;29;20037;-78
2023/12/02 12:47:14;;;;;;;4.80;3.72;;;1.80;99.90;;;;;;4937770;29;20055;-78
2023/12/02 12:49:41;;;;;;;13.55;3.90;;;1.90;99.90;;;;;;4955609;28;20106;-76
2023/12/02 12:52:09;;;;;;;7.43;5.20;;;4.40;99.90;;;;;;4960262;28;20027;-76
2023/12/02 12:54:40;;;;;;;10.20;5.47;;;4.50;99.90;;;;;;4965609;28;20035;-77
2023/12/02 12:57:17;;;;;;;12.23;7.47;;;5.10;99.90;;;;;;4969058;28;20086;-76
2023/12/02 12:59:50;;;;;;;15.10;8.07;;;5.20;99.90;;;;;;4965186;28;20031;-76